Latest Weather Observations for Moranbah Airport

IDQ60801

Issued at 10:02 pm EST Saturday 21 October 2017 (issued every 30 minutes, with the page automatically refreshed every 10 minutes)

About weather observations | Map of weather stations | Latest weather observations for QLD | Other Formats
Station Details ID: 034035 Name: MORANBAH AIRPORT Lat: -22.06 Lon: 148.08 Height: 232.2 m
Data from the previous 72 hours. | See also: Recent months at Moranbah Airport
Date/Time
EST
Temp
°C
App
Temp
°C
Dew
Point
°C
Rel
Hum
%
Delta-T
°C
Wind Press
QNH
hPa
Press
MSL
hPa
Rain since
9am
mm
Dir  Spd
km/h
Gust
km/h
Spd
kts
Gust
kts
21/10:00pm 17.8 19.4 16.8 94 0.6 ESE 4 6 2 3 1014.4 1013.2 1.0
21/09:58pm 18.1 19.5 17.3 95 0.5 ESE 6 7 3 4 1014.4 1013.2 1.0
21/09:30pm 18.4 19.3 17.6 95 0.5 ESE 9 9 5 5 1014.2 1013.0 1.0
21/09:00pm 18.9 20.0 17.9 94 0.6 ESE 9 9 5 5 1014.0 1012.8 1.0
21/08:30pm 19.3 20.4 18.1 93 0.7 ESE 9 9 5 5 1013.9 1012.7 1.0
21/08:00pm 19.8 20.7 18.3 91 0.9 ESE 11 11 6 6 1013.9 1012.7 1.0
21/07:30pm 20.2 21.4 18.3 89 1.2 E 9 11 5 6 1013.7 1012.5 1.0
21/07:00pm 20.4 22.3 18.5 89 1.2 NNE 6 7 3 4 1013.6 1012.4 1.0
21/06:30pm 21.4 24.4 18.4 83 1.9 CALM 0 0 0 0 1013.5 1012.3 1.0
21/06:00pm 22.1 24.2 18.9 82 2.0 WNW 6 7 3 4 1013.3 1012.1 1.0
21/05:30pm 22.3 24.1 18.7 80 2.3 SW 7 9 4 5 1013.0 1011.8 1.0
21/05:00pm 22.3 23.9 18.3 78 2.5 SW 7 15 4 8 1012.6 1011.4 1.0
21/04:30pm 22.1 24.3 19.5 85 1.7 WSW 7 11 4 6 1012.7 1011.5 1.0
21/04:00pm 21.7 23.8 19.4 87 1.5 W 7 11 4 6 1012.8 1011.6 1.0
21/03:30pm 21.2 23.4 19.1 88 1.3 WNW 6 13 3 7 1013.3 1012.1 1.0
21/03:00pm 21.0 21.2 19.3 90 1.1 WSW 17 22 9 12 1013.5 1012.3 1.0
21/02:30pm 22.3 22.9 18.7 80 2.3 WNW 13 22 7 12 1013.4 1012.2 0.8
21/02:00pm 22.1 22.6 19.3 84 1.8 WNW 15 19 8 10 1013.8 1012.6 0.6
21/01:30pm 22.2 23.1 18.4 79 2.4 WNW 11 17 6 9 1014.1 1012.9 0.4
21/01:07pm 22.5 24.3 19.5 83 1.9 NW 9 11 5 6 1014.4 1013.2 0.4
21/01:00pm 22.3 24.0 19.3 83 1.9 NW 9 11 5 6 1014.5 1013.3 0.4
21/12:48pm 22.4 24.3 19.0 81 2.2 NW 7 11 4 6 1014.8 1013.6 0.2
21/12:30pm 22.1 24.0 18.5 80 2.3 N 6 11 3 6 1015.3 1014.1 0.2
21/12:00pm 22.0 24.7 18.6 81 2.2 NW 2 9 1 5 1015.4 1014.2 0.2
21/11:30am 21.8 21.9 18.4 81 2.1 NE 15 22 8 12 1015.3 1014.1 0.2
21/11:00am 21.7 22.3 18.5 82 2.0 NNE 13 20 7 11 1015.3 1014.1 0.2
21/10:30am 21.7 23.8 18.9 84 1.8 S 6 9 3 5 1016.2 1015.1 0.2
21/10:00am 21.4 23.1 19.3 88 1.3 SSW 9 13 5 7 1016.6 1015.5 0.0
21/09:30am 21.4 21.7 17.8 80 2.2 SSW 13 17 7 9 1016.8 1015.6 0.0
21/09:00am 21.6 22.4 18.2 81 2.1 SW 11 15 6 8 1016.6 1015.5 0.0
21/08:30am 21.6 22.8 17.4 77 2.6 SW 7 11 4 6 1016.5 1015.4 0.0
21/08:00am 21.5 23.1 17.9 80 2.3 SW 6 9 3 5 1016.4 1015.3 0.0
21/07:30am 21.0 22.1 18.0 83 1.9 S 9 11 5 6 1016.3 1015.2 0.0
21/07:00am 20.5 22.1 18.3 87 1.4 SSW 7 11 4 6 1016.1 1015.0 0.0
21/06:30am 20.1 21.7 18.2 89 1.2 S 7 9 4 5 1015.9 1014.8 0.0
21/06:00am 19.6 21.2 17.9 90 1.1 SSW 6 7 3 4 1015.5 1014.4 0.0
21/05:30am 19.3 21.0 18.0 92 0.8 SSW 6 7 3 4 1015.4 1014.2 0.0
21/05:00am 19.3 20.7 17.8 91 0.9 S 7 9 4 5 1015.1 1013.9 0.0
21/04:30am 19.3 20.9 17.8 91 0.9 S 6 7 3 4 1015.0 1013.8 0.0
21/04:00am 19.4 20.8 17.9 91 0.9 SSE 7 9 4 5 1014.8 1013.6 0.0
21/03:30am 19.1 20.1 17.8 92 0.8 SE 9 11 5 6 1014.8 1013.6 0.0
21/03:00am 19.1 19.7 17.8 92 0.8 SE 11 13 6 7 1014.9 1013.7 0.0
21/02:30am 18.8 19.7 17.6 93 0.7 SE 9 9 5 5 1015.3 1014.1 0.0
21/02:00am 18.8 19.1 17.1 90 1.0 SSE 11 13 6 7 1015.5 1014.4 0.0
21/01:30am 19.0 19.4 17.3 90 1.0 SE 11 13 6 7 1015.7 1014.6 0.0
21/01:00am 19.4 20.2 17.2 87 1.4 SE 9 9 5 5 1015.9 1014.8 0.0
21/12:30am 19.4 20.1 17.0 86 1.5 SE 9 11 5 6 1015.9 1014.8 0.0
21/12:00am 20.1 20.8 17.1 83 1.8 ESE 9 9 5 5 1016.2 1015.1 0.0
 
Date/Time
EST
Temp
°C
App
Temp
°C
Dew
Point
°C
Rel
Hum
%
Delta-T
°C
Wind Press
QNH
hPa
Press
MSL
hPa
Rain since
9am
mm
Dir  Spd
km/h
Gust
km/h
Spd
kts
Gust
kts
20/11:30pm 20.9 22.1 17.3 80 2.2 E 7 11 4 6 1016.5 1015.4 0.0
20/11:00pm 21.2 22.0 17.4 79 2.4 E 9 15 5 8 1016.8 1015.6 0.0
20/10:30pm 21.6 22.5 17.6 78 2.5 E 9 13 5 7 1017.0 1015.8 0.0
20/10:00pm 21.7 22.1 17.3 76 2.7 ENE 11 13 6 7 1017.0 1015.8 0.0
20/09:30pm 21.6 22.0 17.2 76 2.7 ENE 11 15 6 8 1017.0 1015.8 0.0
20/09:00pm 21.5 22.1 16.9 75 2.8 ENE 9 11 5 6 1016.9 1015.7 0.0
20/08:30pm 22.4 22.7 17.1 72 3.3 ENE 11 15 6 8 1016.9 1015.7 0.0
20/08:00pm 23.0 23.3 17.0 69 3.7 ENE 11 13 6 7 1016.5 1015.4 0.0
20/07:30pm 23.0 23.1 16.5 67 4.0 E 11 13 6 7 1016.3 1015.2 0.0
20/07:00pm 23.8 23.8 16.3 63 4.6 E 11 13 6 7 1016.3 1015.2 0.0
20/06:30pm 24.8 24.0 16.2 58 5.3 E 15 19 8 10 1016.2 1015.1 0.0
20/06:00pm 26.2 24.4 15.9 53 6.4 E 20 28 11 15 1016.0 1014.9 0.0
20/05:30pm 27.2 25.3 15.2 47 7.4 ESE 19 24 10 13 1015.7 1014.6 0.0
20/05:00pm 28.2 26.8 15.5 46 7.8 ESE 17 22 9 12 1015.6 1014.5 0.0
20/04:30pm 27.6 25.9 14.6 45 7.9 ESE 17 24 9 13 1015.6 1014.5 0.0
20/04:00pm 28.1 27.1 15.7 46 7.7 SE 15 22 8 12 1015.6 1014.5 0.0
20/03:30pm 28.0 27.0 15.6 46 7.7 E 15 24 8 13 1015.8 1014.7 0.0
20/03:00pm 27.9 26.4 15.2 46 7.8 E 17 22 9 12 1016.0 1014.9 0.0
20/02:30pm 27.9 26.9 15.5 46 7.7 ESE 15 20 8 11 1016.5 1015.4 0.0
20/02:00pm 28.0 27.2 16.0 48 7.5 ENE 15 22 8 12 1017.0 1015.8 0.0
20/01:30pm 28.2 27.4 16.1 47 7.5 ESE 15 26 8 14 1017.4 1016.2 0.0
20/01:00pm 27.3 25.7 16.0 50 7.0 E 19 28 10 15 1017.8 1016.6 0.0
20/12:30pm 26.9 25.0 15.3 49 7.1 E 19 28 10 15 1018.1 1016.9 0.0
20/12:00pm 26.9 25.4 16.2 52 6.6 E 19 26 10 14 1018.4 1017.2 0.0
20/11:30am 26.2 24.2 16.4 54 6.1 E 22 28 12 15 1018.8 1017.6 0.0
20/11:00am 26.1 25.0 16.4 55 6.0 E 17 24 9 13 1019.2 1018.0 0.0
20/10:30am 26.2 25.5 18.3 61 5.1 ENE 19 28 10 15 1019.6 1018.5 0.0
20/10:00am 24.4 23.0 16.6 61 4.8 E 19 26 10 14 1019.9 1018.8 0.0
20/09:30am 24.2 22.7 16.7 63 4.7 E 20 30 11 16 1019.9 1018.8 0.0
20/09:00am 24.1 23.2 18.1 69 3.8 ESE 20 30 11 16 1019.9 1018.8 2.6
20/08:30am 23.2 21.6 17.4 70 3.6 E 22 28 12 15 1019.9 1018.8 2.6
20/08:00am 22.0 20.3 18.0 78 2.5 ESE 24 30 13 16 1019.9 1018.8 2.6
20/07:30am 20.8 20.4 18.0 84 1.8 ESE 17 24 9 13 1019.9 1018.8 2.6
20/07:00am 19.6 18.6 17.9 90 1.1 SE 20 24 11 13 1019.8 1018.7 2.6
20/06:30am 18.9 17.8 17.4 91 0.9 SE 19 22 10 12 1019.6 1018.5 2.6
20/06:00am 18.8 19.0 17.6 93 0.7 SE 13 19 7 10 1019.3 1018.2 2.6
20/05:30am 18.5 18.5 17.2 92 0.8 SE 13 17 7 9 1019.1 1017.9 2.6
20/05:00am 18.9 19.1 17.7 93 0.7 SE 13 17 7 9 1019.1 1017.9 2.6
20/04:30am 18.8 19.0 17.6 93 0.7 SE 13 15 7 8 1019.0 1017.8 2.6
20/04:00am 18.8 19.4 17.6 93 0.7 SE 11 13 6 7 1018.7 1017.5 2.6
20/03:30am 18.8 19.4 17.6 93 0.7 SE 11 15 6 8 1018.8 1017.6 2.6
20/03:00am 18.6 19.1 17.4 93 0.7 ESE 11 15 6 8 1018.7 1017.5 2.6
20/02:30am 18.9 19.1 17.6 92 0.8 ESE 13 15 7 8 1018.8 1017.6 2.6
20/02:00am 19.3 19.2 17.8 91 0.9 ESE 15 19 8 10 1018.9 1017.7 2.6
20/01:30am 19.8 19.9 18.3 91 0.9 ESE 15 20 8 11 1019.3 1018.2 2.6
20/01:00am 19.7 19.9 18.5 93 0.8 SE 15 20 8 11 1019.5 1018.4 2.6
20/12:58am 19.7 19.9 18.5 93 0.8 SE 15 20 8 11 1019.6 1018.5 2.6
20/12:44am 19.7 19.5 18.5 93 0.8 ESE 17 20 9 11 1019.7 1018.6 2.6
20/12:30am 19.6 19.7 18.4 93 0.8 ESE 15 19 8 10 1019.8 1018.7 2.6
20/12:00am 19.7 19.0 18.2 91 0.9 ESE 19 28 10 15 1020.1 1019.0 2.6
 
Date/Time
EST
Temp
°C
App
Temp
°C
Dew
Point
°C
Rel
Hum
%
Delta-T
°C
Wind Press
QNH
hPa
Press
MSL
hPa
Rain since
9am
mm
Dir  Spd
km/h
Gust
km/h
Spd
kts
Gust
kts
19/11:58pm 19.8 18.9 18.3 91 0.9 ESE 20 28 11 15 1020.1 1019.0 2.6
19/11:55pm 19.8 18.9 18.1 90 1.1 ESE 20 28 11 15 1020.2 1019.1 2.6
19/11:43pm 20.1 19.5 18.4 90 1.1 ESE 19 24 10 13 1020.4 1019.3 2.4
19/11:37pm 20.6 20.4 18.4 87 1.4 ESE 17 24 9 13 1020.5 1019.4 2.4
19/11:30pm 20.8 20.1 18.2 85 1.6 ESE 19 24 10 13 1020.6 1019.5 2.4
19/11:00pm 20.7 20.1 18.5 87 1.4 ESE 19 28 10 15 1020.8 1019.7 2.4
19/10:30pm 21.1 18.9 17.9 82 2.0 ESE 26 35 14 19 1020.8 1019.7 2.4
19/10:00pm 21.3 19.6 18.1 82 2.0 ESE 24 32 13 17 1020.6 1019.5 2.4
19/09:30pm 21.2 20.3 18.2 83 1.9 ESE 20 28 11 15 1020.7 1019.6 2.4
19/09:00pm 21.5 20.6 18.1 81 2.1 ESE 20 28 11 15 1020.3 1019.2 2.4
19/08:30pm 21.3 20.8 17.9 81 2.1 ESE 17 22 9 12 1020.2 1019.1 2.4
19/08:00pm 21.7 20.9 17.9 79 2.4 ESE 19 24 10 13 1019.9 1018.8 2.4
19/07:30pm 22.0 21.2 18.0 78 2.5 ESE 19 24 10 13 1019.7 1018.6 2.4
19/07:00pm 22.4 20.7 18.0 76 2.8 E 24 37 13 20 1019.4 1018.3 2.4
19/06:30pm 23.1 21.3 18.8 77 2.7 E 26 39 14 21 1018.9 1017.7 2.4
19/06:00pm 23.7 21.6 19.0 75 3.0 ESE 28 41 15 22 1018.3 1017.1 2.4
19/05:30pm 23.5 21.5 19.2 77 2.8 E 28 35 15 19 1018.0 1016.8 2.4
19/05:00pm 24.9 22.9 19.1 70 3.7 E 28 37 15 20 1017.6 1016.4 2.4
19/04:30pm 26.4 23.4 19.0 63 4.8 E 33 43 18 23 1017.1 1015.9 2.4
19/04:00pm 26.2 22.8 18.9 64 4.7 E 35 54 19 29 1017.1 1015.9 2.4
19/03:52pm 25.9 22.0 17.8 61 5.1 E 35 54 19 29 1017.0 1015.8 2.4
19/03:30pm 26.2 22.5 19.1 65 4.6 E 37 50 20 27 1016.9 1015.7 2.4
19/03:00pm 25.7 22.6 19.6 69 4.0 E 35 46 19 25 1017.0 1015.8 2.4
19/02:30pm 26.0 23.7 20.1 70 3.9 ENE 32 43 17 23 1017.2 1016.0 2.4
19/02:00pm 24.0 21.6 20.3 80 2.4 E 33 48 18 26 1017.4 1016.2 2.2
19/01:46pm 26.2 22.6 19.3 65 4.5 E 37 57 20 31 1017.3 1016.1 2.2
19/01:30pm 25.5 25.3 22.0 81 2.4 E 26 35 14 19 1017.5 1016.3 2.2
19/01:00pm 23.6 23.3 21.1 86 1.7 E 24 35 13 19 1018.0 1016.8 2.0
19/12:30pm 25.2 24.1 22.5 85 1.8 E 32 46 17 25 1018.2 1017.0 1.4
19/12:00pm 25.3 24.2 21.0 77 2.9 ESE 28 39 15 21 1018.2 1017.0 1.4
19/11:49am 25.0 23.7 21.3 80 2.5 ESE 30 41 16 22 1018.3 1017.1 1.4
19/11:30am 24.7 22.9 21.2 81 2.3 ESE 32 46 17 25 1018.4 1017.2 1.4
19/11:01am 24.2 23.8 22.3 89 1.3 ESE 28 37 15 20 1018.7 1017.5 1.4
19/11:00am 24.3 24.0 22.6 90 1.1 ESE 28 37 15 20 1018.7 1017.5 1.4
19/10:30am 23.0 22.3 21.8 93 0.8 ESE 28 35 15 19 1019.0 1017.8 1.0
19/10:12am 23.3 22.9 21.7 91 1.1 ESE 26 33 14 18 1018.9 1017.7 0.6
19/10:00am 23.6 22.1 21.7 89 1.3 ESE 32 41 17 22 1018.8 1017.6 0.6
19/09:45am 23.5 23.3 22.1 92 0.9 ESE 26 35 14 19 1018.9 1017.7 0.6
19/09:30am 22.7 22.8 21.9 95 0.5 ESE 24 33 13 18 1019.0 1017.8 0.6
19/09:03am 22.5 21.5 21.3 93 0.8 SE 28 37 15 20 1019.1 1017.9 0.0
19/09:00am 22.5 21.8 21.0 91 1.0 SE 26 35 14 19 1019.0 1017.8 1.4
19/08:53am 22.7 22.8 21.2 91 1.0 SE 22 30 12 16 1018.9 1017.7 1.4
19/08:42am 22.6 23.1 20.9 90 1.1 ESE 19 26 10 14 1018.8 1017.6 1.4
19/08:30am 23.1 23.5 21.0 88 1.4 ESE 20 28 11 15 1018.8 1017.6 1.0
19/08:11am 22.4 23.0 21.0 92 0.9 ESE 19 26 10 14 1018.7 1017.5 1.0
19/08:00am 22.2 22.2 21.0 93 0.8 ESE 22 28 12 15 1018.4 1017.2 1.0
19/07:59am 22.3 22.4 21.1 93 0.8 ESE 22 28 12 15 1018.4 1017.2 1.0
19/07:30am 22.3 21.8 20.8 91 1.0 SE 24 32 13 17 1018.1 1016.9 1.0
19/07:00am 22.2 21.7 20.7 91 1.0 ESE 24 30 13 16 1018.0 1016.8 1.0
19/06:55am 22.4 22.5 21.2 93 0.8 SE 22 30 12 16 1017.9 1016.7 1.0
19/06:30am 21.9 22.2 20.7 93 0.8 SE 20 26 11 14 1017.7 1016.5 1.0
19/06:00am 21.5 21.6 20.3 93 0.8 SE 20 28 11 15 1017.2 1016.0 1.0
19/05:30am 21.4 21.6 20.2 93 0.8 ESE 19 26 10 14 1017.0 1015.8 1.0
19/05:00am 21.4 22.1 20.4 94 0.6 ESE 17 22 9 12 1017.0 1015.8 1.0
19/04:30am 21.4 22.5 20.4 94 0.7 SE 15 19 8 10 1016.6 1015.5 1.0
19/04:00am 21.3 22.4 20.5 95 0.5 ESE 15 17 8 9 1016.6 1015.5 1.0
19/03:30am 21.2 22.3 20.5 96 0.5 ESE 15 19 8 10 1016.6 1015.5 1.0
19/03:01am 21.2 21.9 20.4 95 0.5 E 17 22 9 12 1016.3 1015.2 1.0
19/03:00am 21.1 21.4 20.3 95 0.5 E 19 22 10 12 1016.2 1015.1 1.0
19/02:30am 21.2 21.5 20.4 95 0.5 ESE 19 24 10 13 1016.4 1015.3 1.0
19/02:24am 21.3 21.5 20.5 95 0.5 ESE 20 24 11 13 1016.5 1015.4 1.0
19/02:00am 21.3 21.5 20.1 93 0.8 ESE 19 24 10 13 1016.9 1015.7 1.0
19/01:53am 21.5 21.8 20.3 93 0.8 E 19 24 10 13 1017.0 1015.8 1.0
19/01:31am 21.9 21.7 19.8 88 1.4 E 20 28 11 15 1017.3 1016.1 0.8
19/01:30am 22.0 21.9 19.9 88 1.4 E 20 28 11 15 1017.3 1016.1 0.8
19/01:00am 22.6 22.5 19.6 83 1.9 ESE 19 24 10 13 1017.5 1016.3 0.8
19/12:30am 22.7 23.0 19.5 82 2.1 E 17 22 9 12 1017.9 1016.7 0.8
19/12:00am 22.8 23.1 19.6 82 2.1 ESE 17 20 9 11 1017.9 1016.7 0.8
 
Date/Time
EST
Temp
°C
App
Temp
°C
Dew
Point
°C
Rel
Hum
%
Delta-T
°C
Wind Press
QNH
hPa
Press
MSL
hPa
Rain since
9am
mm
Dir  Spd
km/h
Gust
km/h
Spd
kts
Gust
kts
18/11:30pm 22.8 23.1 19.6 82 2.1 ESE 17 24 9 13 1018.2 1017.0 0.8
18/11:00pm 22.9 23.2 19.7 82 2.1 ESE 17 24 9 13 1018.1 1016.9 0.8
18/10:30pm 22.9 24.0 19.7 82 2.1 E 13 17 7 9 1018.3 1017.1 0.8

Other Formats:

Comma delimited format used in spreadsheet applications
http://www.bom.gov.au/fwo/IDQ60801/IDQ60801.94397.axf

JavaScript Object Notation format (JSON) in row-major order
http://www.bom.gov.au/fwo/IDQ60801/IDQ60801.94397.json